createdAt,value
2018-09-20T00:01:32.380Z,83.68
2018-09-20T00:04:03.017Z,83.61
2018-09-20T00:06:32.802Z,83.45
2018-09-20T00:09:02.716Z,83.79
2018-09-20T00:11:32.912Z,84.22
2018-09-20T00:14:02.472Z,84.48
2018-09-20T00:16:32.954Z,84.00
2018-09-20T00:19:02.585Z,84.77
2018-09-20T00:21:32.373Z,84.57
2018-09-20T00:24:01.901Z,84.21
2018-09-20T00:26:31.705Z,83.97
2018-09-20T00:29:01.266Z,84.41
2018-09-20T00:31:33.803Z,84.04
2018-09-20T00:34:03.263Z,84.04
2018-09-20T00:36:32.843Z,84.17
2018-09-20T00:39:04.502Z,84.06
2018-09-20T00:41:34.056Z,84.13
2018-09-20T00:44:03.546Z,83.92
2018-09-20T00:46:33.206Z,83.54
2018-09-20T00:49:03.848Z,83.54
2018-09-20T00:51:34.448Z,83.06
2018-09-20T00:54:06.397Z,83.42
2018-09-20T00:56:35.921Z,83.00
2018-09-20T00:59:06.414Z,82.45
2018-09-20T01:01:36.008Z,82.00
2018-09-20T01:04:05.517Z,82.41
2018-09-20T01:06:35.055Z,82.17
2018-09-20T01:09:12.606Z,82.28
2018-09-20T01:11:42.132Z,82.63
2018-09-20T01:14:11.608Z,82.58
2018-09-20T01:16:41.101Z,82.77
2018-09-20T01:19:10.987Z,82.98
2018-09-20T01:21:40.530Z,83.28
2018-09-20T01:24:09.986Z,83.82
2018-09-20T01:26:39.618Z,83.62
2018-09-20T01:29:09.109Z,84.35
2018-09-20T01:31:38.594Z,84.62
2018-09-20T01:34:11.036Z,84.43
2018-09-20T01:36:40.813Z,85.02
2018-09-20T01:39:13.064Z,85.29
2018-09-20T01:41:42.759Z,85.51
2018-09-20T01:44:15.395Z,85.35
2018-09-20T01:46:45.485Z,85.63
2018-09-20T01:49:15.158Z,85.18
2018-09-20T01:51:44.633Z,85.69
2018-09-20T01:54:14.371Z,85.55
2018-09-20T01:56:49.310Z,86.01
2018-09-20T01:59:19.019Z,85.87
2018-09-20T02:01:48.562Z,85.89
2018-09-20T02:04:18.506Z,85.29
2018-09-20T02:06:50.499Z,84.84
2018-09-20T02:09:20.064Z,84.64
2018-09-20T02:11:49.629Z,84.32
2018-09-20T02:14:19.810Z,84.63
2018-09-20T02:16:49.527Z,84.96
2018-09-20T02:19:19.090Z,85.00
2018-09-20T02:21:48.731Z,85.79
2018-09-20T02:24:18.178Z,85.74
2018-09-20T02:26:51.302Z,85.99
2018-09-20T02:29:20.897Z,86.46
2018-09-20T02:31:50.371Z,86.36
2018-09-20T02:34:19.956Z,86.02
2018-09-20T02:36:49.902Z,86.54
2018-09-20T02:39:22.029Z,86.51
2018-09-20T02:41:51.630Z,86.02
2018-09-20T02:47:21.496Z,86.49
2018-09-20T02:49:51.400Z,86.36
2018-09-20T02:52:20.860Z,86.85
2018-09-20T02:54:50.493Z,86.47
2018-09-20T02:57:20.325Z,86.25
2018-09-20T03:00:21.327Z,85.84
2018-09-20T03:02:50.958Z,86.39
2018-09-20T03:05:21.778Z,86.12
2018-09-20T03:07:51.340Z,86.44
2018-09-20T03:10:21.068Z,86.56
2018-09-20T03:12:50.561Z,86.53
2018-09-20T03:15:20.057Z,86.30
2018-09-20T03:17:49.611Z,86.83
2018-09-20T03:20:19.369Z,86.96
2018-09-20T03:22:49.050Z,86.62
2018-09-20T03:25:18.575Z,86.82
2018-09-20T03:27:48.306Z,86.06
2018-09-20T03:30:18.060Z,86.08
2018-09-20T03:32:47.649Z,85.50
2018-09-20T03:35:17.631Z,85.81
2018-09-20T03:37:47.158Z,85.91
2018-09-20T03:40:16.793Z,85.38
2018-09-20T03:42:47.136Z,85.65
2018-09-20T03:45:18.040Z,85.53
2018-09-20T03:47:47.682Z,85.92
2018-09-20T03:50:17.762Z,86.31
2018-09-20T03:52:48.085Z,86.70
2018-09-20T03:55:17.831Z,86.92
2018-09-20T03:57:47.879Z,87.35
2018-09-20T04:00:45.878Z,87.42
2018-09-20T04:03:15.519Z,87.12
2018-09-20T04:05:45.203Z,86.38
2018-09-20T04:08:37.449Z,86.65
2018-09-20T04:11:08.147Z,86.02
2018-09-20T04:13:39.563Z,86.54
2018-09-20T04:16:12.623Z,86.38
2018-09-20T04:18:44.514Z,85.95
2018-09-20T04:21:18.671Z,85.81
2018-09-20T04:23:52.198Z,86.41
2018-09-20T04:26:22.349Z,86.26
2018-09-20T04:28:57.448Z,86.55
2018-09-20T04:31:31.089Z,86.87
2018-09-20T04:34:02.418Z,86.53
2018-09-20T04:36:32.364Z,87.07
2018-09-20T04:39:02.182Z,86.64
2018-09-20T04:41:34.976Z,87.28
2018-09-20T04:44:04.477Z,87.23
2018-09-20T04:46:37.842Z,88.00
2018-09-20T04:49:07.345Z,88.07
2018-09-20T04:51:37.721Z,87.93
2018-09-20T04:54:07.824Z,87.68
2018-09-20T04:56:37.664Z,87.49
2018-09-20T04:59:07.432Z,87.91
2018-09-20T05:01:37.146Z,87.98
2018-09-20T05:04:06.976Z,87.53
2018-09-20T05:06:38.371Z,87.95
2018-09-20T05:09:15.329Z,87.40
2018-09-20T05:11:45.403Z,87.35
2018-09-20T05:14:15.983Z,87.75
2018-09-20T05:16:45.506Z,87.52
2018-09-20T05:19:15.382Z,87.54
2018-09-20T05:21:45.338Z,87.65
2018-09-20T05:24:14.851Z,87.96
2018-09-20T05:26:44.375Z,88.04
2018-09-20T05:29:13.909Z,87.51
2018-09-20T05:31:43.645Z,87.28
2018-09-20T05:34:13.181Z,87.27
2018-09-20T05:36:45.318Z,87.41
2018-09-20T05:39:14.960Z,87.11
2018-09-20T05:41:44.498Z,86.49
2018-09-20T05:44:14.313Z,86.36
2018-09-20T05:46:44.432Z,85.51
2018-09-20T05:49:13.964Z,85.25
2018-09-20T05:51:43.701Z,84.71
2018-09-20T05:54:13.174Z,84.65
2018-09-20T05:56:48.301Z,84.87
2018-09-20T05:59:18.439Z,84.19
2018-09-20T06:01:47.993Z,84.27
2018-09-20T06:04:17.607Z,84.35
2018-09-20T06:06:49.529Z,84.80
2018-09-20T06:09:19.397Z,84.38
2018-09-20T06:11:49.211Z,84.76
2018-09-20T06:14:21.517Z,84.71
2018-09-20T06:16:52.467Z,84.27
2018-09-20T06:19:22.903Z,83.71
2018-09-20T06:21:52.689Z,83.48
2018-09-20T06:24:22.198Z,83.93
2018-09-20T06:26:51.994Z,83.51
2018-09-20T06:29:21.522Z,83.17
2018-09-20T06:31:51.078Z,82.83
2018-09-20T06:34:20.541Z,82.38
2018-09-20T06:36:50.557Z,82.31
2018-09-20T06:39:19.956Z,81.77
2018-09-20T06:41:49.731Z,80.91
2018-09-20T06:44:19.167Z,79.54
2018-09-20T06:46:48.784Z,79.09
2018-09-20T06:49:18.293Z,78.17
2018-09-20T06:51:50.375Z,77.15
2018-09-20T06:54:19.798Z,76.14
2018-09-20T06:56:49.252Z,74.87
2018-09-20T06:59:18.732Z,75.20
2018-09-20T07:01:48.245Z,75.51
2018-09-20T07:04:17.681Z,75.17
2018-09-20T07:06:47.481Z,74.34
2018-09-20T07:09:17.402Z,74.80
2018-09-20T07:11:46.866Z,74.54
2018-09-20T07:14:16.490Z,72.39
2018-09-20T07:16:45.976Z,70.85
2018-09-20T07:19:15.541Z,69.33
2018-09-20T07:21:45.332Z,69.24
2018-09-20T07:24:14.893Z,68.36
2018-09-20T07:26:44.734Z,67.12
2018-09-20T07:29:14.331Z,64.95
2018-09-20T07:31:45.149Z,62.96
2018-09-20T07:34:14.785Z,61.56
2018-09-20T07:36:44.924Z,61.04
2018-09-20T07:39:14.433Z,58.65
2018-09-20T07:41:44.537Z,57.65
2018-09-20T07:44:14.132Z,56.28
2018-09-20T07:46:44.334Z,54.59
2018-09-20T07:49:13.765Z,51.43
2018-09-20T07:51:43.668Z,52.08
2018-09-20T07:54:14.231Z,50.54
2018-09-20T07:56:44.261Z,49.20
2018-09-20T07:59:13.968Z,48.16
2018-09-20T08:01:44.483Z,47.70
2018-09-20T08:04:14.141Z,47.70
2018-09-20T08:06:43.797Z,46.47
2018-09-20T08:09:14.170Z,41.54
2018-09-20T08:11:44.032Z,42.08
2018-09-20T08:14:13.594Z,41.30
2018-09-20T08:16:44.659Z,39.08
2018-09-20T08:19:14.171Z,39.09
2018-09-20T08:21:44.172Z,36.49
2018-09-20T08:24:13.721Z,37.44
2018-09-20T08:26:44.831Z,36.75
2018-09-20T08:29:14.297Z,37.02
2018-09-20T08:31:43.845Z,37.44
2018-09-20T08:34:13.353Z,38.81
2018-09-20T08:36:45.338Z,40.17
2018-09-20T08:39:14.849Z,37.60
2018-09-20T08:41:44.630Z,36.62
2018-09-20T08:44:15.250Z,37.96
2018-09-20T08:46:45.942Z,37.05
2018-09-20T08:49:15.532Z,37.07
2018-09-20T08:51:47.422Z,36.60
2018-09-20T08:54:17.000Z,36.67
2018-09-20T08:56:46.735Z,34.03
2018-09-20T08:59:16.576Z,34.16
2018-09-20T09:01:46.439Z,34.86
2018-09-20T09:04:15.882Z,33.41
2018-09-20T09:06:45.533Z,34.63
2018-09-20T09:09:15.074Z,33.68
2018-09-20T09:11:44.650Z,33.88
2018-09-20T09:14:16.445Z,34.93
2018-09-20T09:16:46.137Z,34.49
2018-09-20T09:19:15.624Z,34.61
2018-09-20T09:21:45.336Z,35.30
2018-09-20T09:24:15.210Z,37.07
2018-09-20T09:26:45.046Z,35.94
2018-09-20T09:29:14.581Z,37.08
2018-09-20T09:31:44.162Z,37.68
2018-09-20T09:34:15.031Z,37.83
2018-09-20T09:36:45.082Z,39.03
2018-09-20T09:39:14.663Z,39.21
2018-09-20T09:41:45.115Z,39.96
2018-09-20T09:44:14.618Z,40.53
2018-09-20T09:46:44.101Z,39.68
2018-09-20T09:49:13.915Z,40.79
2018-09-20T09:51:43.482Z,40.76
2018-09-20T09:54:13.137Z,41.37
2018-09-20T09:56:42.635Z,39.62
2018-09-20T09:59:13.498Z,40.14
2018-09-20T10:01:43.001Z,39.51
2018-09-20T10:04:12.466Z,39.41
2018-09-20T10:06:42.319Z,39.13
2018-09-20T10:09:12.441Z,40.52
2018-09-20T10:11:41.937Z,42.03
2018-09-20T10:14:11.410Z,41.79
2018-09-20T10:16:40.929Z,40.82
2018-09-20T10:19:10.939Z,41.67
2018-09-20T10:21:40.429Z,41.83
2018-09-20T10:24:09.985Z,42.52
2018-09-20T10:26:39.441Z,43.25
2018-09-20T10:29:09.173Z,42.29
2018-09-20T10:31:38.694Z,42.59
2018-09-20T10:34:08.214Z,41.86
2018-09-20T10:36:37.749Z,39.90
2018-09-20T10:39:11.225Z,40.72
2018-09-20T10:41:40.801Z,40.63
2018-09-20T10:44:10.342Z,40.76
2018-09-20T10:46:41.213Z,39.92
2018-09-20T10:49:10.627Z,41.21
2018-09-20T10:51:41.719Z,41.79
2018-09-20T10:54:11.173Z,41.95
2018-09-20T10:56:41.938Z,41.26
2018-09-20T10:59:11.445Z,41.83
2018-09-20T11:01:40.951Z,42.49
2018-09-20T11:04:10.370Z,41.91
2018-09-20T11:06:39.849Z,41.85
2018-09-20T11:09:10.128Z,41.38
2018-09-20T11:11:39.682Z,41.74
2018-09-20T11:14:09.285Z,42.84
2018-09-20T11:16:39.937Z,41.11
2018-09-20T11:19:10.848Z,41.11
2018-09-20T11:21:40.501Z,41.46
2018-09-20T11:24:10.244Z,41.17
2018-09-20T11:26:39.741Z,41.46
2018-09-20T11:29:09.275Z,40.86
2018-09-20T11:31:39.502Z,42.13
2018-09-20T11:34:09.130Z,41.61
2018-09-20T11:36:38.946Z,41.01
2018-09-20T11:39:11.173Z,41.34
2018-09-20T11:41:40.899Z,37.67
2018-09-20T11:44:10.902Z,38.75
2018-09-20T11:46:40.611Z,37.40
2018-09-20T11:49:10.582Z,37.43
2018-09-20T11:51:41.794Z,37.27
2018-09-20T11:54:11.389Z,37.58
2018-09-20T11:56:41.151Z,38.06
2018-09-20T11:59:11.114Z,37.72
2018-09-20T12:01:40.849Z,37.92
2018-09-20T12:04:10.621Z,37.84
2018-09-20T12:06:40.396Z,36.50
2018-09-20T12:09:09.954Z,36.34
2018-09-20T12:11:39.602Z,37.41
2018-09-20T12:14:09.050Z,37.54
2018-09-20T12:16:38.541Z,36.46
2018-09-20T12:19:08.117Z,35.77
2018-09-20T12:21:38.260Z,36.01
2018-09-20T12:24:07.735Z,35.76
2018-09-20T12:26:37.211Z,36.01
2018-09-20T12:29:06.889Z,36.04
2018-09-20T12:31:36.566Z,35.60
2018-09-20T12:34:06.214Z,36.07
2018-09-20T12:36:35.741Z,36.10
2018-09-20T12:39:09.139Z,36.83
2018-09-20T12:41:38.885Z,36.22
2018-09-20T12:44:08.330Z,36.70
2018-09-20T12:46:38.204Z,35.40
2018-09-20T12:49:07.680Z,35.66
2018-09-20T12:51:37.258Z,34.94
2018-09-20T12:54:07.586Z,34.64
2018-09-20T12:56:37.083Z,34.71
2018-09-20T12:59:06.696Z,33.91
2018-09-20T13:01:36.509Z,34.64
2018-09-20T13:04:06.117Z,33.95
2018-09-20T13:06:35.640Z,34.49
2018-09-20T13:09:17.662Z,33.46
2018-09-20T13:11:47.128Z,33.94
2018-09-20T13:14:16.548Z,34.16
2018-09-20T13:16:46.038Z,32.88
2018-09-20T13:19:15.762Z,32.61
2018-09-20T13:21:45.250Z,33.32
2018-09-20T13:24:14.755Z,30.67
2018-09-20T13:26:44.270Z,29.65
2018-09-20T13:29:15.092Z,30.12
2018-09-20T13:31:44.722Z,30.04
2018-09-20T13:34:14.253Z,28.22
2018-09-20T13:36:44.026Z,26.91
2018-09-20T13:39:14.881Z,26.45
2018-09-20T13:41:44.442Z,27.26
2018-09-20T13:44:14.055Z,30.08
2018-09-20T13:46:43.684Z,30.52
2018-09-20T13:49:13.262Z,29.21
2018-09-20T13:51:42.716Z,27.21
2018-09-20T13:54:12.260Z,25.18
2018-09-20T13:56:41.760Z,22.98
2018-09-20T13:59:11.401Z,23.87
2018-09-20T14:01:40.926Z,22.62
2018-09-20T14:04:10.596Z,23.25
2018-09-20T14:06:40.418Z,23.96
2018-09-20T14:09:11.461Z,23.43
2018-09-20T14:11:41.635Z,21.77
2018-09-20T14:14:11.118Z,21.63
2018-09-20T14:16:40.765Z,21.16
2018-09-20T14:19:10.690Z,21.50
2018-09-20T14:21:40.353Z,22.88
2018-09-20T14:24:10.646Z,24.86
2018-09-20T14:26:42.023Z,24.98
2018-09-20T14:29:11.512Z,25.51
2018-09-20T14:31:40.953Z,24.66
2018-09-20T14:34:10.630Z,24.72
2018-09-20T14:36:40.165Z,23.69
2018-09-20T14:39:10.858Z,22.62
2018-09-20T14:41:40.890Z,19.94
2018-09-20T14:44:22.338Z,19.79
2018-09-20T14:46:52.395Z,20.30
2018-09-20T14:49:27.844Z,21.25
2018-09-20T14:51:57.293Z,20.83
2018-09-20T14:54:26.999Z,21.28
2018-09-20T14:56:56.734Z,21.40
2018-09-20T14:59:26.224Z,19.63
2018-09-20T15:01:56.063Z,20.23
2018-09-20T15:04:25.588Z,19.17
2018-09-20T15:07:01.803Z,18.66
2018-09-20T15:09:31.425Z,19.16
2018-09-20T15:12:01.256Z,20.00
2018-09-20T15:14:31.038Z,20.06
2018-09-20T15:17:00.682Z,20.05
2018-09-20T15:19:30.169Z,20.16
2018-09-20T15:21:59.711Z,20.69
2018-09-20T15:24:31.141Z,20.72
2018-09-20T15:27:00.806Z,20.57
2018-09-20T15:29:30.452Z,20.53
2018-09-20T15:31:59.976Z,21.58
2018-09-20T15:34:29.512Z,21.13
2018-09-20T15:36:59.522Z,21.43
2018-09-20T15:39:29.893Z,21.53
2018-09-20T15:41:59.634Z,22.09
2018-09-20T15:44:29.433Z,23.43
2018-09-20T15:46:59.957Z,25.13
2018-09-20T15:49:29.487Z,27.65
2018-09-20T15:51:59.098Z,28.74
2018-09-20T15:54:28.977Z,30.77
2018-09-20T15:57:00.034Z,30.32
2018-09-20T15:59:31.033Z,29.93
2018-09-20T16:02:01.536Z,30.71
2018-09-20T16:04:34.573Z,30.09
2018-09-20T16:07:04.612Z,31.82
2018-09-20T16:09:35.366Z,32.99
2018-09-20T16:12:04.935Z,34.34
2018-09-20T16:14:34.600Z,35.85
2018-09-20T16:17:04.126Z,36.59
2018-09-20T16:19:36.214Z,37.85
2018-09-20T16:22:05.728Z,37.65
2018-09-20T16:24:35.202Z,40.12
2018-09-20T16:27:04.944Z,41.29
2018-09-20T16:29:45.068Z,41.82
2018-09-20T16:36:45.279Z,41.76
2018-09-20T16:39:23.631Z,43.94
2018-09-20T16:41:56.907Z,43.63
2018-09-20T16:44:34.193Z,43.65
2018-09-20T16:47:04.474Z,43.19
2018-09-20T16:49:34.435Z,44.37
2018-09-20T16:52:06.488Z,44.18
2018-09-20T16:54:36.028Z,43.78
2018-09-20T16:57:05.634Z,42.75
2018-09-20T16:59:37.538Z,40.71
2018-09-20T17:02:07.109Z,39.61
2018-09-20T17:04:36.749Z,38.97
2018-09-20T17:07:06.367Z,38.66
2018-09-20T17:09:36.176Z,37.98
2018-09-20T17:12:06.739Z,39.62
2018-09-20T17:14:36.915Z,38.43
2018-09-20T17:17:12.322Z,37.85
2018-09-20T17:19:42.133Z,39.28
2018-09-20T17:22:11.679Z,40.05
2018-09-20T17:24:46.412Z,42.41
2018-09-20T17:27:16.965Z,43.94
2018-09-20T17:29:46.741Z,44.88
2018-09-20T17:32:17.145Z,45.59
2018-09-20T17:34:47.139Z,45.69
2018-09-20T17:37:18.427Z,46.97
2018-09-20T17:39:49.878Z,48.87
2018-09-20T17:42:29.576Z,47.35
2018-09-20T17:44:59.746Z,47.29
2018-09-20T17:47:29.648Z,51.00
2018-09-20T17:50:00.327Z,49.72
2018-09-20T17:52:31.439Z,51.50
2018-09-20T17:55:01.520Z,51.02
2018-09-20T17:57:34.514Z,51.94
2018-09-20T18:00:04.406Z,53.08
2018-09-20T18:02:35.652Z,53.66
2018-09-20T18:05:05.465Z,54.11
2018-09-20T18:07:35.063Z,52.78
2018-09-20T18:10:04.940Z,52.88
2018-09-20T18:12:35.034Z,51.91
2018-09-20T18:15:04.834Z,51.23
2018-09-20T18:17:36.512Z,52.45
2018-09-20T18:20:06.426Z,52.47
2018-09-20T18:22:39.181Z,53.72
2018-09-20T18:25:11.532Z,54.34
2018-09-20T18:27:41.144Z,54.86
2018-09-20T18:30:11.781Z,54.49
2018-09-20T18:32:44.605Z,54.16
2018-09-20T18:35:15.201Z,54.96
2018-09-20T18:37:50.843Z,54.91
2018-09-20T18:40:21.692Z,55.23
2018-09-20T18:46:24.615Z,54.90
2018-09-20T18:48:57.260Z,54.36
2018-09-20T18:51:38.016Z,55.18
2018-09-20T18:54:08.014Z,55.87
2018-09-20T18:56:47.907Z,55.42
2018-09-20T19:03:15.085Z,56.15
2018-09-20T19:06:45.950Z,56.74
2018-09-20T19:09:33.780Z,57.71
2018-09-20T19:12:10.978Z,57.84
2018-09-20T19:14:55.500Z,58.23
2018-09-20T19:17:26.449Z,58.90
2018-09-20T19:19:56.186Z,58.93
2018-09-20T19:22:25.913Z,59.49
2018-09-20T19:24:55.999Z,58.96
2018-09-20T19:27:25.708Z,59.15
2018-09-20T19:29:55.763Z,59.37
2018-09-20T19:32:26.354Z,59.88
2018-09-20T19:34:57.291Z,59.34
2018-09-20T19:37:26.941Z,59.77
2018-09-20T19:40:06.338Z,60.37
2018-09-20T19:42:37.068Z,60.14
2018-09-20T19:45:07.098Z,60.77
2018-09-20T19:47:37.615Z,60.56
2018-09-20T19:50:07.986Z,60.80
2018-09-20T19:53:52.509Z,60.99
2018-09-20T19:56:22.243Z,61.05
2018-09-20T19:58:52.467Z,61.50
2018-09-20T20:01:22.600Z,62.00
2018-09-20T20:03:52.672Z,62.01
2018-09-20T20:06:22.265Z,62.37
2018-09-20T20:08:52.600Z,62.32
2018-09-20T20:11:22.352Z,62.41
2018-09-20T20:13:52.024Z,63.23
2018-09-20T20:16:22.320Z,63.34
2018-09-20T20:19:03.841Z,63.97
2018-09-20T20:21:35.198Z,64.00
2018-09-20T20:24:06.022Z,63.88
2018-09-20T20:26:36.497Z,64.71
2018-09-20T20:29:06.182Z,64.98
2018-09-20T20:31:35.982Z,64.85
2018-09-20T20:34:06.132Z,65.68
2018-09-20T20:36:38.070Z,65.71
2018-09-20T20:39:09.378Z,65.59
2018-09-20T20:41:39.179Z,65.55
2018-09-20T20:44:08.803Z,65.63
2018-09-20T20:46:38.541Z,65.62
2018-09-20T20:49:52.795Z,64.71
2018-09-20T20:52:24.264Z,65.17
2018-09-20T20:55:02.066Z,65.95
2018-09-20T20:57:32.234Z,66.31
2018-09-20T21:00:02.097Z,67.27
2018-09-20T21:02:32.560Z,67.62
2018-09-20T21:05:02.184Z,68.00
2018-09-20T21:07:32.065Z,67.87
2018-09-20T21:10:01.781Z,68.22
2018-09-20T21:12:32.697Z,68.83
2018-09-20T21:15:02.367Z,68.84
2018-09-20T21:17:32.408Z,69.81
2018-09-20T21:20:02.038Z,69.82
2018-09-20T21:22:32.051Z,70.11
2018-09-20T21:25:01.668Z,69.84
2018-09-20T21:27:31.516Z,69.96
2018-09-20T21:30:01.221Z,70.23
2018-09-20T21:32:30.834Z,70.30
2018-09-20T21:35:00.541Z,70.17
2018-09-20T21:37:30.407Z,70.21
2018-09-20T21:40:00.144Z,70.78
2018-09-20T21:42:29.703Z,70.86
2018-09-20T21:45:02.103Z,70.54
2018-09-20T21:47:33.034Z,70.95
2018-09-20T21:50:02.684Z,71.46
2018-09-20T21:52:32.522Z,71.66
2018-09-20T21:55:02.456Z,72.41
2018-09-20T21:57:33.072Z,72.14
2018-09-20T22:00:03.446Z,72.69
2018-09-20T22:02:38.378Z,72.56
2018-09-20T22:05:08.136Z,72.75
2018-09-20T22:07:37.894Z,73.58
2018-09-20T22:10:08.086Z,73.26
2018-09-20T22:12:38.084Z,73.19
2018-09-20T22:15:11.876Z,73.49
2018-09-20T22:17:41.950Z,73.20
2018-09-20T22:20:11.631Z,73.52
2018-09-20T22:22:41.539Z,74.07
2018-09-20T22:25:12.677Z,73.78
2018-09-20T22:27:42.478Z,74.54
2018-09-20T22:30:12.182Z,74.54
2018-09-20T22:32:42.300Z,74.19
2018-09-20T22:35:13.753Z,74.80
2018-09-20T22:37:43.278Z,74.45
2018-09-20T22:40:15.124Z,74.75
2018-09-20T22:42:45.075Z,74.99
2018-09-20T22:45:14.660Z,74.50
2018-09-20T22:47:44.135Z,75.29
2018-09-20T22:50:16.034Z,74.61
2018-09-20T22:52:45.485Z,74.77
2018-09-20T22:55:15.101Z,74.43
2018-09-20T22:57:44.597Z,74.24
2018-09-20T23:00:14.221Z,74.16
2018-09-20T23:02:43.891Z,74.40
2018-09-20T23:05:13.940Z,75.17
2018-09-20T23:07:43.768Z,75.04
2018-09-20T23:10:13.419Z,75.94
2018-09-20T23:12:43.274Z,75.32
2018-09-20T23:15:12.902Z,75.30
2018-09-20T23:17:42.499Z,75.59
2018-09-20T23:20:12.016Z,75.29
2018-09-20T23:22:42.290Z,75.20
2018-09-20T23:25:12.157Z,75.79
2018-09-20T23:27:41.761Z,76.04
2018-09-20T23:30:23.125Z,76.63
2018-09-20T23:32:52.909Z,76.72
2018-09-20T23:35:23.834Z,76.88
2018-09-20T23:37:53.462Z,76.71
2018-09-20T23:40:22.959Z,76.58
2018-09-20T23:42:52.774Z,76.47
2018-09-20T23:45:24.711Z,76.29
2018-09-20T23:47:54.548Z,76.03
2018-09-20T23:50:24.260Z,75.57
2018-09-20T23:52:53.900Z,75.44
2018-09-20T23:55:23.469Z,75.92
2018-09-20T23:57:52.992Z,75.77
